Time;durP1;ratioP1;P1;durP2;ratioP2;P2;SDS_P1;SDS_P2;PMS_P1;PMS_P2;Temp;Humidity;BMP_temperature;BMP_pressure;BME280_temperature;BME280_humidity;BME280_pressure;Samples;Min_cycle;Max_cycle;Signal;HPM_P1;HPM_P2
2024/01/05 00:01:42;;;;;;;13.50;12.47;;;;;;;;;;5016172;28;20429;-45
2024/01/05 00:04:09;;;;;;;12.93;11.88;;;;;;;;;;5015844;28;20471;-45
2024/01/05 00:06:38;;;;;;;15.88;14.70;;;;;;;;;;5015913;28;20182;-45
2024/01/05 00:09:04;;;;;;;18.77;17.25;;;;;;;;;;5015419;28;20180;-45
2024/01/05 00:11:30;;;;;;;11.98;10.98;;;;;;;;;;5011320;28;20180;-45
2024/01/05 00:13:56;;;;;;;14.57;13.23;;;;;;;;;;5012347;28;20196;-44
2024/01/05 00:16:23;;;;;;;10.97;10.07;;;;;;;;;;5007391;28;20399;-43
2024/01/05 00:18:49;;;;;;;11.98;11.07;;;;;;;;;;5007055;28;20969;-44
2024/01/05 00:21:22;;;;;;;12.35;11.25;;;;;;;;;;5015313;28;20188;-45
2024/01/05 00:23:48;;;;;;;55.88;42.60;;;;;;;;;;5015507;28;20298;-44
2024/01/05 00:26:14;;;;;;;11.40;10.48;;;;;;;;;;5007113;28;20216;-44
2024/01/05 00:28:40;;;;;;;10.83;9.83;;;;;;;;;;5008967;28;20621;-44
2024/01/05 00:31:08;;;;;;;10.70;9.68;;;;;;;;;;5011762;28;20979;-44
2024/01/05 00:33:35;;;;;;;11.45;10.40;;;;;;;;;;5008604;28;20626;-44
2024/01/05 00:36:02;;;;;;;13.57;12.45;;;;;;;;;;5006964;28;20588;-44
2024/01/05 00:38:28;;;;;;;15.40;13.90;;;;;;;;;;5007052;28;20274;-44
2024/01/05 00:40:54;;;;;;;11.18;10.20;;;;;;;;;;5014967;28;20649;-45
2024/01/05 00:43:20;;;;;;;12.37;11.27;;;;;;;;;;5014659;28;20294;-44
2024/01/05 00:45:46;;;;;;;11.50;10.50;;;;;;;;;;5014912;28;20933;-44
2024/01/05 00:48:12;;;;;;;13.13;11.98;;;;;;;;;;5012839;28;20411;-43
2024/01/05 00:50:38;;;;;;;38.07;25.20;;;;;;;;;;5008849;28;20709;-44
2024/01/05 00:53:04;;;;;;;19.97;18.00;;;;;;;;;;5006041;28;20822;-45
2024/01/05 00:55:29;;;;;;;13.77;12.57;;;;;;;;;;5011491;28;20500;-44
2024/01/05 00:57:56;;;;;;;14.13;13.07;;;;;;;;;;5014540;28;20502;-44
2024/01/05 01:00:22;;;;;;;13.20;12.15;;;;;;;;;;5013789;28;20898;-44
2024/01/05 01:02:48;;;;;;;16.05;14.75;;;;;;;;;;5014606;28;20196;-44
2024/01/05 01:05:14;;;;;;;14.97;13.83;;;;;;;;;;5013987;28;20315;-45
2024/01/05 01:07:40;;;;;;;16.45;15.02;;;;;;;;;;4999103;28;20411;-44
2024/01/05 01:10:06;;;;;;;12.25;11.20;;;;;;;;;;5005803;28;20179;-44
2024/01/05 01:12:32;;;;;;;11.80;10.80;;;;;;;;;;5010040;28;20195;-44
2024/01/05 01:14:58;;;;;;;12.52;11.43;;;;;;;;;;5013878;28;20196;-44
2024/01/05 01:17:24;;;;;;;12.47;11.43;;;;;;;;;;5014552;28;20707;-44
2024/01/05 01:19:50;;;;;;;11.55;10.55;;;;;;;;;;4995295;28;20404;-43
2024/01/05 01:22:16;;;;;;;100.57;39.78;;;;;;;;;;5009268;28;20702;-46
2024/01/05 01:24:42;;;;;;;11.67;10.73;;;;;;;;;;5003279;28;20196;-45
2024/01/05 01:27:08;;;;;;;104.97;40.47;;;;;;;;;;5001234;28;20421;-45
2024/01/05 01:29:34;;;;;;;54.60;33.57;;;;;;;;;;5011371;28;20919;-44
2024/01/05 01:32:00;;;;;;;30.53;27.63;;;;;;;;;;4994842;28;20818;-46
2024/01/05 01:34:26;;;;;;;15.60;14.38;;;;;;;;;;5012516;28;20545;-45
2024/01/05 01:36:52;;;;;;;28.50;26.17;;;;;;;;;;4999682;28;20219;-45
2024/01/05 01:39:18;;;;;;;57.20;42.10;;;;;;;;;;5004157;28;20529;-45
2024/01/05 01:41:44;;;;;;;25.13;23.10;;;;;;;;;;5007773;28;20443;-45
2024/01/05 01:44:10;;;;;;;36.17;33.43;;;;;;;;;;4996231;28;20627;-45
2024/01/05 01:46:36;;;;;;;25.98;23.88;;;;;;;;;;5013992;28;20427;-45
2024/01/05 01:49:05;;;;;;;34.13;30.83;;;;;;;;;;4998536;28;20179;-45
2024/01/05 01:51:32;;;;;;;15.73;14.38;;;;;;;;;;5013196;28;20180;-46
2024/01/05 01:53:59;;;;;;;12.68;11.57;;;;;;;;;;5003130;28;20215;-45
2024/01/05 01:56:25;;;;;;;12.77;11.68;;;;;;;;;;5000247;28;20232;-45
2024/01/05 01:58:51;;;;;;;15.32;14.07;;;;;;;;;;5011221;28;20640;-46
2024/01/05 02:01:17;;;;;;;71.63;34.38;;;;;;;;;;4993823;28;20165;-46
2024/01/05 02:03:43;;;;;;;16.00;14.38;;;;;;;;;;5011050;28;20196;-46
2024/01/05 02:06:09;;;;;;;13.25;12.10;;;;;;;;;;4999010;28;20191;-46
2024/01/05 02:08:36;;;;;;;54.65;35.05;;;;;;;;;;5002245;28;20176;-46
2024/01/05 02:11:02;;;;;;;11.10;10.10;;;;;;;;;;5007520;28;20240;-46
2024/01/05 02:13:28;;;;;;;12.18;11.07;;;;;;;;;;4995370;28;20203;-45
2024/01/05 02:15:54;;;;;;;126.78;47.90;;;;;;;;;;5013323;28;20258;-46
2024/01/05 02:18:20;;;;;;;24.33;19.05;;;;;;;;;;4995487;28;20224;-44
2024/01/05 02:20:47;;;;;;;10.70;9.70;;;;;;;;;;4993748;28;20183;-46
2024/01/05 02:23:25;;;;;;;99.78;41.17;;;;;;;;;;5003441;28;20443;-46
2024/01/05 02:25:52;;;;;;;11.32;10.27;;;;;;;;;;5012907;28;20229;-46
2024/01/05 02:28:18;;;;;;;78.25;34.83;;;;;;;;;;5012777;28;20548;-45
2024/01/05 02:30:44;;;;;;;12.05;10.98;;;;;;;;;;5012827;28;20183;-47
2024/01/05 02:33:10;;;;;;;14.40;13.17;;;;;;;;;;5006721;28;20202;-47
2024/01/05 02:35:36;;;;;;;16.10;14.80;;;;;;;;;;5004870;28;20464;-45
2024/01/05 02:38:02;;;;;;;13.38;12.27;;;;;;;;;;5012773;28;20414;-46
2024/01/05 02:40:28;;;;;;;11.40;10.30;;;;;;;;;;5012480;28;20184;-45
2024/01/05 02:42:54;;;;;;;10.63;9.77;;;;;;;;;;5004952;28;20715;-45
2024/01/05 02:45:21;;;;;;;10.70;9.80;;;;;;;;;;5009174;28;20438;-46
2024/01/05 02:47:53;;;;;;;14.73;13.45;;;;;;;;;;5007900;28;20799;-47
2024/01/05 02:50:20;;;;;;;15.63;14.23;;;;;;;;;;5004100;28;20179;-46
2024/01/05 02:52:46;;;;;;;12.18;11.07;;;;;;;;;;5012355;28;20283;-46
2024/01/05 02:55:12;;;;;;;11.63;10.63;;;;;;;;;;5012430;28;20186;-46
2024/01/05 02:57:39;;;;;;;12.75;11.65;;;;;;;;;;5012492;28;20190;-46
2024/01/05 03:00:05;;;;;;;159.18;52.95;;;;;;;;;;5012067;28;20182;-45
2024/01/05 03:02:31;;;;;;;99.28;41.15;;;;;;;;;;5012347;28;20220;-46
2024/01/05 03:04:57;;;;;;;109.90;39.70;;;;;;;;;;5004068;28;20246;-46
2024/01/05 03:07:23;;;;;;;134.13;50.20;;;;;;;;;;5008717;28;20547;-46
2024/01/05 03:09:49;;;;;;;12.35;11.30;;;;;;;;;;5007697;28;20370;-47
2024/01/05 03:12:15;;;;;;;13.65;12.43;;;;;;;;;;5004026;28;20540;-46
2024/01/05 03:14:41;;;;;;;13.73;12.65;;;;;;;;;;5003855;28;20680;-46
2024/01/05 03:17:07;;;;;;;43.13;30.27;;;;;;;;;;5008078;28;20263;-46
2024/01/05 03:19:33;;;;;;;14.37;13.10;;;;;;;;;;5003723;28;20407;-46
2024/01/05 03:21:59;;;;;;;12.03;11.07;;;;;;;;;;5003882;28;20409;-46
2024/01/05 03:24:25;;;;;;;49.43;26.73;;;;;;;;;;5008146;28;20419;-46
2024/01/05 03:26:51;;;;;;;15.73;14.20;;;;;;;;;;5006619;28;20779;-46
2024/01/05 03:29:17;;;;;;;13.48;12.27;;;;;;;;;;5003490;28;20430;-46
2024/01/05 03:31:44;;;;;;;12.27;11.33;;;;;;;;;;5012268;28;20540;-45
2024/01/05 03:34:10;;;;;;;27.63;17.40;;;;;;;;;;5002674;28;21004;-46
2024/01/05 03:36:36;;;;;;;62.57;27.53;;;;;;;;;;5003707;28;20215;-45
2024/01/05 03:39:02;;;;;;;10.90;10.03;;;;;;;;;;5003533;28;20902;-46
2024/01/05 03:41:28;;;;;;;11.63;10.60;;;;;;;;;;5007552;28;20919;-46
2024/01/05 03:43:54;;;;;;;12.93;11.73;;;;;;;;;;5007918;28;20202;-46
2024/01/05 03:46:20;;;;;;;12.05;11.05;;;;;;;;;;5003549;28;20415;-46
2024/01/05 03:48:46;;;;;;;12.13;11.02;;;;;;;;;;5011539;28;20183;-45
2024/01/05 03:51:12;;;;;;;11.90;10.87;;;;;;;;;;5011782;28;20438;-46
2024/01/05 03:53:38;;;;;;;12.20;11.17;;;;;;;;;;5003364;28;20525;-45
2024/01/05 03:56:04;;;;;;;11.67;10.63;;;;;;;;;;5003565;28;20420;-46
2024/01/05 03:58:30;;;;;;;16.80;15.10;;;;;;;;;;5006827;28;20549;-45
2024/01/05 04:00:56;;;;;;;11.47;10.47;;;;;;;;;;5008226;28;20710;-46
2024/01/05 04:03:22;;;;;;;13.43;12.33;;;;;;;;;;5011630;28;20438;-46
2024/01/05 04:05:48;;;;;;;14.82;13.68;;;;;;;;;;5011766;28;20421;-46
2024/01/05 04:08:15;;;;;;;12.37;11.27;;;;;;;;;;5011532;28;20175;-46
2024/01/05 04:10:41;;;;;;;12.73;11.73;;;;;;;;;;5011493;28;20488;-47
2024/01/05 04:13:07;;;;;;;11.60;10.60;;;;;;;;;;5011776;28;20204;-45
2024/01/05 04:15:37;;;;;;;13.00;11.80;;;;;;;;;;5011467;28;20226;-46
2024/01/05 04:18:03;;;;;;;12.30;11.20;;;;;;;;;;5011507;28;20191;-45
2024/01/05 04:20:29;;;;;;;11.93;10.95;;;;;;;;;;5011209;28;20643;-46
2024/01/05 04:22:55;;;;;;;13.40;12.27;;;;;;;;;;5014738;28;20230;-46
2024/01/05 04:25:21;;;;;;;10.90;9.98;;;;;;;;;;5031059;28;20397;-45
2024/01/05 04:27:47;;;;;;;12.57;11.50;;;;;;;;;;5011719;28;20262;-46
2024/01/05 04:30:13;;;;;;;14.80;13.50;;;;;;;;;;5026341;28;20410;-46
2024/01/05 04:32:39;;;;;;;12.68;11.63;;;;;;;;;;5019537;28;20937;-46
2024/01/05 04:35:05;;;;;;;13.00;11.90;;;;;;;;;;5018758;28;20179;-46
2024/01/05 04:37:31;;;;;;;13.05;11.90;;;;;;;;;;5027837;28;20227;-45
2024/01/05 04:39:57;;;;;;;13.23;12.07;;;;;;;;;;5011410;28;20179;-45
2024/01/05 04:42:23;;;;;;;14.60;13.40;;;;;;;;;;5011477;28;20441;-45
2024/01/05 04:44:49;;;;;;;12.90;11.87;;;;;;;;;;4997489;28;20827;-46
2024/01/05 04:47:15;;;;;;;14.10;13.00;;;;;;;;;;5006213;28;20426;-46
2024/01/05 04:49:41;;;;;;;14.68;13.48;;;;;;;;;;5014263;28;20411;-46
2024/01/05 04:52:07;;;;;;;13.30;12.13;;;;;;;;;;5011980;28;20556;-45
2024/01/05 04:54:33;;;;;;;12.40;11.47;;;;;;;;;;4995251;28;20453;-46
2024/01/05 04:57:01;;;;;;;21.90;19.33;;;;;;;;;;5011703;28;20414;-45
2024/01/05 04:59:27;;;;;;;57.80;28.17;;;;;;;;;;5010604;28;20918;-46
2024/01/05 05:01:53;;;;;;;18.40;16.80;;;;;;;;;;5014573;28;20186;-46
2024/01/05 05:04:19;;;;;;;14.00;13.00;;;;;;;;;;5014347;28;20438;-47
2024/01/05 05:06:45;;;;;;;16.73;15.50;;;;;;;;;;5007939;28;20407;-45
2024/01/05 05:09:12;;;;;;;15.20;14.00;;;;;;;;;;5021521;28;20415;-46
2024/01/05 05:11:39;;;;;;;18.67;17.27;;;;;;;;;;5009212;28;20520;-46
2024/01/05 05:14:05;;;;;;;14.50;13.40;;;;;;;;;;5010955;28;20250;-45
2024/01/05 05:16:31;;;;;;;17.40;16.13;;;;;;;;;;5007447;28;20172;-45
2024/01/05 05:18:57;;;;;;;17.60;16.30;;;;;;;;;;5012956;28;20411;-45
2024/01/05 05:21:25;;;;;;;16.87;15.60;;;;;;;;;;5014272;28;20818;-46
2024/01/05 05:23:51;;;;;;;17.92;16.58;;;;;;;;;;5014040;28;20973;-46
2024/01/05 05:26:17;;;;;;;17.77;16.47;;;;;;;;;;5005995;28;20219;-46
2024/01/05 05:28:43;;;;;;;18.10;16.73;;;;;;;;;;5007667;28;20424;-46
2024/01/05 05:31:09;;;;;;;18.50;17.10;;;;;;;;;;5010907;28;20419;-46
2024/01/05 05:33:35;;;;;;;18.80;17.30;;;;;;;;;;5007604;28;20463;-46
2024/01/05 05:36:01;;;;;;;21.93;20.33;;;;;;;;;;5005785;28;20667;-45
2024/01/05 05:38:27;;;;;;;22.10;20.23;;;;;;;;;;5005591;28;20441;-45
2024/01/05 05:40:53;;;;;;;17.83;16.63;;;;;;;;;;5014014;28;20203;-47
2024/01/05 05:43:19;;;;;;;18.50;17.20;;;;;;;;;;5013714;28;20426;-45
2024/01/05 05:45:45;;;;;;;16.70;15.50;;;;;;;;;;5013846;28;20245;-46
2024/01/05 05:48:12;;;;;;;19.03;17.63;;;;;;;;;;5013549;28;20411;-45
2024/01/05 05:50:38;;;;;;;15.00;13.98;;;;;;;;;;5013483;28;20990;-46
2024/01/05 05:53:04;;;;;;;18.57;17.27;;;;;;;;;;5005104;28;20236;-46
2024/01/05 05:55:30;;;;;;;16.03;14.90;;;;;;;;;;5013609;28;20906;-46
2024/01/05 05:57:57;;;;;;;16.13;14.93;;;;;;;;;;5012910;28;20773;-46
2024/01/05 06:00:25;;;;;;;18.00;16.65;;;;;;;;;;5012214;28;20550;-46
2024/01/05 06:02:51;;;;;;;19.60;18.23;;;;;;;;;;5013371;28;20199;-45
2024/01/05 06:05:17;;;;;;;13.75;12.85;;;;;;;;;;5013405;28;20180;-46
2024/01/05 06:07:43;;;;;;;16.15;14.88;;;;;;;;;;5007130;28;20183;-46
2024/01/05 06:10:09;;;;;;;15.53;14.37;;;;;;;;;;5009760;28;20555;-47
2024/01/05 06:12:35;;;;;;;17.83;16.50;;;;;;;;;;5007113;28;20451;-46
2024/01/05 06:15:01;;;;;;;16.67;15.50;;;;;;;;;;5006108;28;20215;-45
2024/01/05 06:17:27;;;;;;;19.87;18.37;;;;;;;;;;5006361;28;20171;-45
2024/01/05 06:19:53;;;;;;;16.70;15.40;;;;;;;;;;5006286;28;20767;-45
2024/01/05 06:22:19;;;;;;;14.37;13.27;;;;;;;;;;5013385;28;20190;-46
2024/01/05 06:24:45;;;;;;;16.43;15.20;;;;;;;;;;5013732;28;20903;-45
2024/01/05 06:27:11;;;;;;;16.92;15.68;;;;;;;;;;5013429;28;20422;-45
2024/01/05 06:29:37;;;;;;;19.70;18.08;;;;;;;;;;5012508;28;20586;-45
2024/01/05 06:32:03;;;;;;;19.42;17.92;;;;;;;;;;5012495;28;20171;-45
2024/01/05 06:34:29;;;;;;;21.27;19.55;;;;;;;;;;5012358;28;20237;-45
2024/01/05 06:36:55;;;;;;;18.63;17.13;;;;;;;;;;5004761;28;20176;-45
2024/01/05 06:39:21;;;;;;;17.97;16.47;;;;;;;;;;5004191;28;20179;-45
2024/01/05 06:41:47;;;;;;;21.00;19.50;;;;;;;;;;5005731;28;20415;-45
2024/01/05 06:44:13;;;;;;;21.43;19.93;;;;;;;;;;5008540;28;20494;-45
2024/01/05 06:46:39;;;;;;;18.25;16.95;;;;;;;;;;5007212;28;20941;-45
2024/01/05 06:49:05;;;;;;;19.50;17.90;;;;;;;;;;5003551;28;20180;-45
2024/01/05 06:51:40;;;;;;;17.93;16.47;;;;;;;;;;5006020;28;20430;-45
2024/01/05 06:54:06;;;;;;;16.50;15.25;;;;;;;;;;5004514;28;20469;-45
2024/01/05 06:56:33;;;;;;;21.38;19.38;;;;;;;;;;5001929;28;20181;-45
2024/01/05 06:59:00;;;;;;;19.63;18.33;;;;;;;;;;5011543;28;20203;-45
2024/01/05 07:01:26;;;;;;;18.60;17.15;;;;;;;;;;5012223;28;20555;-45
2024/01/05 07:03:52;;;;;;;19.37;17.77;;;;;;;;;;5012710;28;20202;-45
2024/01/05 07:06:18;;;;;;;20.73;19.23;;;;;;;;;;5012218;28;20406;-45
2024/01/05 07:08:44;;;;;;;19.00;17.60;;;;;;;;;;5010659;28;20425;-45
2024/01/05 07:11:19;;;;;;;16.30;15.05;;;;;;;;;;5012064;28;20929;-45
2024/01/05 07:13:44;;;;;;;19.58;18.17;;;;;;;;;;5012186;28;20262;-45
2024/01/05 07:16:20;;;;;;;16.87;15.57;;;;;;;;;;5011982;28;20176;-45
2024/01/05 07:18:46;;;;;;;20.58;19.00;;;;;;;;;;5010928;28;20407;-45
2024/01/05 07:21:16;;;;;;;19.50;18.08;;;;;;;;;;4992800;28;20172;-45
2024/01/05 07:23:42;;;;;;;18.50;17.10;;;;;;;;;;5010249;28;20195;-45
2024/01/05 07:26:09;;;;;;;19.95;18.45;;;;;;;;;;4998450;28;20204;-45
2024/01/05 07:28:35;;;;;;;25.02;23.02;;;;;;;;;;5002319;28;20195;-45
2024/01/05 07:31:05;;;;;;;19.63;18.30;;;;;;;;;;5006365;28;20648;-45
2024/01/05 07:33:34;;;;;;;20.25;18.63;;;;;;;;;;4994604;28;20821;-45
2024/01/05 07:36:04;;;;;;;19.08;17.67;;;;;;;;;;5012374;28;20195;-45
2024/01/05 07:38:30;;;;;;;24.95;22.98;;;;;;;;;;4993202;28;20168;-45
2024/01/05 07:40:57;;;;;;;19.52;18.02;;;;;;;;;;5007393;28;20172;-45
2024/01/05 07:43:23;;;;;;;30.67;27.65;;;;;;;;;;5004364;28;20565;-45
2024/01/05 07:45:49;;;;;;;20.83;19.30;;;;;;;;;;5011443;28;20578;-46
2024/01/05 07:48:15;;;;;;;24.23;22.53;;;;;;;;;;5009516;28;20179;-45
2024/01/05 07:50:41;;;;;;;25.23;23.42;;;;;;;;;;5006118;28;20407;-45
2024/01/05 07:53:07;;;;;;;20.67;19.17;;;;;;;;;;5011807;28;20226;-45
2024/01/05 07:55:33;;;;;;;22.43;20.83;;;;;;;;;;5011740;28;20542;-45
2024/01/05 07:57:59;;;;;;;21.10;19.70;;;;;;;;;;5012029;28;20411;-45
2024/01/05 08:00:25;;;;;;;20.73;19.27;;;;;;;;;;5003473;28;20617;-46
2024/01/05 08:02:51;;;;;;;51.17;47.10;;;;;;;;;;5011504;28;20496;-45
2024/01/05 08:05:17;;;;;;;27.83;25.93;;;;;;;;;;5011617;28;20414;-45
2024/01/05 08:07:46;;;;;;;21.70;20.10;;;;;;;;;;5011723;28;20465;-45
2024/01/05 08:10:12;;;;;;;24.67;22.90;;;;;;;;;;5011411;28;20649;-45
2024/01/05 08:12:38;;;;;;;23.00;21.40;;;;;;;;;;5011604;28;20203;-46
2024/01/05 08:15:04;;;;;;;20.67;19.17;;;;;;;;;;5011381;28;20604;-45
2024/01/05 08:17:30;;;;;;;25.80;23.95;;;;;;;;;;5003349;28;20477;-45
2024/01/05 08:19:56;;;;;;;21.97;20.33;;;;;;;;;;5004631;28;20587;-45
2024/01/05 08:22:25;;;;;;;25.87;24.27;;;;;;;;;;5011919;28;20428;-45
2024/01/05 08:24:51;;;;;;;26.33;24.58;;;;;;;;;;5011084;28;20498;-45
2024/01/05 08:27:17;;;;;;;30.90;28.57;;;;;;;;;;5007147;28;20251;-45
2024/01/05 08:29:43;;;;;;;109.50;64.77;;;;;;;;;;5006019;28;20422;-45
2024/01/05 08:32:09;;;;;;;21.95;20.35;;;;;;;;;;5019367;28;20488;-45
2024/01/05 08:34:35;;;;;;;24.17;22.48;;;;;;;;;;5013756;28;20212;-45
2024/01/05 08:37:01;;;;;;;23.23;21.60;;;;;;;;;;5014995;28;20176;-45
2024/01/05 08:39:27;;;;;;;24.00;22.30;;;;;;;;;;5010686;28;20545;-45
2024/01/05 08:41:53;;;;;;;25.80;24.00;;;;;;;;;;5010951;28;20465;-45
2024/01/05 08:44:23;;;;;;;23.55;21.95;;;;;;;;;;5006432;28;20837;-45
2024/01/05 08:46:49;;;;;;;25.33;23.55;;;;;;;;;;5014834;28;20174;-45
2024/01/05 08:49:15;;;;;;;27.40;25.30;;;;;;;;;;5014610;28;20260;-45
2024/01/05 08:51:42;;;;;;;26.00;24.40;;;;;;;;;;5014815;28;20411;-46
2024/01/05 08:54:09;;;;;;;64.75;42.53;;;;;;;;;;5014305;28;20569;-45
2024/01/05 08:56:35;;;;;;;97.43;57.55;;;;;;;;;;5014694;28;20172;-45
2024/01/05 08:59:01;;;;;;;60.93;54.77;;;;;;;;;;5005996;28;20180;-45
2024/01/05 09:01:28;;;;;;;55.07;49.83;;;;;;;;;;5010418;28;20416;-45
2024/01/05 09:03:54;;;;;;;33.78;31.10;;;;;;;;;;5010589;28;20885;-44
2024/01/05 09:06:20;;;;;;;46.67;41.97;;;;;;;;;;5006295;28;20251;-45
2024/01/05 09:08:46;;;;;;;48.60;44.20;;;;;;;;;;5006213;28;20252;-45
2024/01/05 09:11:12;;;;;;;48.40;43.83;;;;;;;;;;5006227;28;20424;-45
2024/01/05 09:13:38;;;;;;;30.53;28.63;;;;;;;;;;5013866;28;20462;-45
2024/01/05 09:16:04;;;;;;;21.03;19.53;;;;;;;;;;5014296;28;20415;-45
2024/01/05 09:18:33;;;;;;;26.48;24.52;;;;;;;;;;5014082;28;20408;-45
2024/01/05 09:21:00;;;;;;;20.58;19.27;;;;;;;;;;5014405;28;20180;-45
2024/01/05 09:23:26;;;;;;;24.27;22.77;;;;;;;;;;5014119;28;20231;-45
2024/01/05 09:25:52;;;;;;;26.42;24.67;;;;;;;;;;5013957;28;20172;-45
2024/01/05 09:28:18;;;;;;;26.30;24.60;;;;;;;;;;5005678;28;20391;-45
2024/01/05 09:30:44;;;;;;;24.52;22.92;;;;;;;;;;5005815;28;20474;-45
2024/01/05 09:33:10;;;;;;;26.33;24.53;;;;;;;;;;5005731;28;20208;-45
2024/01/05 09:35:36;;;;;;;25.00;23.33;;;;;;;;;;5008590;28;20415;-46
2024/01/05 09:38:02;;;;;;;29.83;27.90;;;;;;;;;;5010427;28;20176;-45
2024/01/05 09:40:28;;;;;;;28.52;26.63;;;;;;;;;;5006524;28;20437;-45
2024/01/05 09:42:57;;;;;;;30.20;28.10;;;;;;;;;;5013622;28;20726;-45
2024/01/05 09:45:24;;;;;;;52.00;47.50;;;;;;;;;;5005899;28;20434;-45
2024/01/05 09:47:51;;;;;;;59.90;54.53;;;;;;;;;;5009220;28;20267;-45
2024/01/05 09:50:17;;;;;;;42.30;39.20;;;;;;;;;;5013227;28;20180;-45
2024/01/05 09:52:48;;;;;;;49.30;45.47;;;;;;;;;;5013646;28;20762;-45
2024/01/05 09:55:14;;;;;;;56.33;52.15;;;;;;;;;;5008406;28;20191;-47
2024/01/05 09:57:41;;;;;;;42.43;39.03;;;;;;;;;;5010469;28;20168;-48
2024/01/05 10:00:10;;;;;;;61.03;55.47;;;;;;;;;;5011301;28;20407;-45
2024/01/05 10:02:42;;;;;;;48.85;44.60;;;;;;;;;;5013359;28;20187;-45
2024/01/05 10:05:09;;;;;;;46.03;41.97;;;;;;;;;;5031823;28;20171;-45
2024/01/05 10:07:44;;;;;;;59.92;54.88;;;;;;;;;;5014704;28;20561;-45
2024/01/05 10:10:12;;;;;;;59.33;54.72;;;;;;;;;;5009277;28;20230;-47
2024/01/05 10:12:38;;;;;;;26.42;24.70;;;;;;;;;;5013002;28;20192;-45
2024/01/05 10:15:06;;;;;;;52.10;48.55;;;;;;;;;;5013090;28;20196;-45
2024/01/05 10:17:32;;;;;;;49.97;46.63;;;;;;;;;;5012995;28;20246;-44
2024/01/05 10:20:17;;;;;;;56.07;52.07;;;;;;;;;;5014190;28;20675;-45
2024/01/05 10:22:46;;;;;;;48.15;44.85;;;;;;;;;;5013008;28;20423;-45
2024/01/05 10:25:21;;;;;;;29.20;27.38;;;;;;;;;;5004967;28;20403;-45
2024/01/05 10:27:48;;;;;;;30.90;28.92;;;;;;;;;;5007660;28;20267;-45
2024/01/05 10:30:28;;;;;;;27.90;26.13;;;;;;;;;;5012372;28;20183;-45
2024/01/05 10:33:07;;;;;;;26.40;24.70;;;;;;;;;;5009753;28;20204;-45
2024/01/05 10:35:34;;;;;;;27.48;25.77;;;;;;;;;;5008266;28;20667;-45
2024/01/05 10:38:05;;;;;;;28.73;26.83;;;;;;;;;;5012600;28;20218;-46
2024/01/05 10:40:32;;;;;;;27.88;26.08;;;;;;;;;;5017381;28;20172;-45
2024/01/05 10:43:09;;;;;;;29.08;27.27;;;;;;;;;;5012488;28;20228;-45
2024/01/05 10:45:35;;;;;;;28.38;26.58;;;;;;;;;;5015767;28;20191;-44
2024/01/05 10:48:02;;;;;;;25.23;23.58;;;;;;;;;;5011871;28;20652;-46
2024/01/05 10:50:29;;;;;;;27.10;25.40;;;;;;;;;;5012777;28;20202;-45
2024/01/05 10:52:55;;;;;;;25.08;23.48;;;;;;;;;;5014154;28;20586;-45
2024/01/05 10:55:21;;;;;;;22.73;21.23;;;;;;;;;;5023424;28;20228;-45
2024/01/05 10:57:47;;;;;;;23.35;21.73;;;;;;;;;;5021308;28;20955;-45
2024/01/05 11:00:13;;;;;;;51.33;47.27;;;;;;;;;;5013012;28;20211;-45
2024/01/05 11:02:40;;;;;;;54.85;50.40;;;;;;;;;;5012583;28;20488;-45
2024/01/05 11:05:08;;;;;;;47.95;44.17;;;;;;;;;;5012924;28;20191;-45
2024/01/05 11:07:34;;;;;;;38.35;35.40;;;;;;;;;;5019778;28;20176;-45
2024/01/05 11:10:19;;;;;;;52.15;48.10;;;;;;;;;;5012311;28;20720;-45
2024/01/05 11:13:11;;;;;;;40.42;37.95;;;;;;;;;;5021822;28;20348;-45
2024/01/05 11:15:53;;;;;;;38.22;35.83;;;;;;;;;;5023165;28;20648;-45
2024/01/05 11:18:28;;;;;;;29.90;28.10;;;;;;;;;;5019562;28;20175;-44
2024/01/05 11:20:57;;;;;;;28.42;26.77;;;;;;;;;;5027800;28;20730;-45
2024/01/05 11:23:25;;;;;;;36.03;34.00;;;;;;;;;;5011596;28;20249;-45
2024/01/05 11:25:53;;;;;;;47.45;44.42;;;;;;;;;;4992586;28;20169;-45
2024/01/05 11:28:38;;;;;;;53.97;49.95;;;;;;;;;;5008983;28;20172;-45
2024/01/05 11:31:04;;;;;;;29.92;28.13;;;;;;;;;;4996877;28;20702;-45
2024/01/05 11:33:48;;;;;;;28.17;26.48;;;;;;;;;;5003349;28;20302;-45
2024/01/05 11:36:34;;;;;;;31.95;29.90;;;;;;;;;;5002585;28;20183;-45
2024/01/05 11:39:00;;;;;;;36.00;33.83;;;;;;;;;;5000232;28;20763;-45
2024/01/05 11:41:32;;;;;;;31.63;29.73;;;;;;;;;;5014236;28;20176;-44
2024/01/05 11:43:58;;;;;;;36.15;34.10;;;;;;;;;;5013164;28;20207;-45
2024/01/05 11:46:44;;;;;;;39.88;37.50;;;;;;;;;;5011999;28;20182;-45
2024/01/05 11:49:10;;;;;;;46.00;43.17;;;;;;;;;;4990838;28;20189;-45
2024/01/05 11:51:36;;;;;;;47.40;44.10;;;;;;;;;;5005463;28;20183;-45
2024/01/05 11:54:02;;;;;;;32.07;29.80;;;;;;;;;;5010043;28;20473;-45
2024/01/05 11:56:28;;;;;;;35.53;33.47;;;;;;;;;;5007238;28;20408;-45
2024/01/05 11:58:53;;;;;;;34.13;32.13;;;;;;;;;;4997981;28;20450;-45
2024/01/05 12:01:19;;;;;;;25.33;23.73;;;;;;;;;;5016004;28;20411;-45
2024/01/05 12:03:45;;;;;;;27.63;25.60;;;;;;;;;;5007737;28;20446;-45
2024/01/05 12:06:13;;;;;;;26.10;24.38;;;;;;;;;;5015151;28;20179;-46
2024/01/05 12:08:40;;;;;;;26.35;24.45;;;;;;;;;;5014955;28;20198;-45
2024/01/05 12:11:08;;;;;;;39.20;36.00;;;;;;;;;;5008947;28;20169;-45
2024/01/05 12:13:34;;;;;;;56.75;51.70;;;;;;;;;;4999603;28;20207;-45
2024/01/05 12:16:02;;;;;;;54.65;49.78;;;;;;;;;;5015795;28;20164;-45
2024/01/05 12:18:30;;;;;;;58.10;53.10;;;;;;;;;;4996473;28;20179;-45
2024/01/05 12:20:57;;;;;;;55.20;50.60;;;;;;;;;;5010997;28;20172;-45
2024/01/05 12:23:23;;;;;;;55.13;50.83;;;;;;;;;;5004082;28;20200;-45
2024/01/05 12:26:09;;;;;;;54.05;49.85;;;;;;;;;;5002857;28;20179;-45
2024/01/05 12:28:36;;;;;;;57.95;53.47;;;;;;;;;;5016892;28;20187;-45
2024/01/05 12:31:04;;;;;;;55.67;51.25;;;;;;;;;;5014686;28;20176;-45
2024/01/05 12:33:30;;;;;;;48.95;45.08;;;;;;;;;;5015076;28;20194;-45
2024/01/05 12:35:56;;;;;;;54.30;50.10;;;;;;;;;;4997470;28;20173;-45
2024/01/05 12:38:23;;;;;;;56.07;51.67;;;;;;;;;;5008025;28;20671;-45
2024/01/05 12:40:49;;;;;;;49.80;46.15;;;;;;;;;;5005004;28;20498;-45
2024/01/05 12:43:16;;;;;;;51.80;47.70;;;;;;;;;;4998771;28;20740;-45
2024/01/05 12:45:42;;;;;;;53.30;49.13;;;;;;;;;;5013182;28;20446;-45
2024/01/05 12:48:11;;;;;;;60.10;55.30;;;;;;;;;;4995308;28;20179;-45
2024/01/05 12:50:37;;;;;;;50.50;46.40;;;;;;;;;;5013167;28;20187;-46
2024/01/05 12:53:16;;;;;;;50.07;46.07;;;;;;;;;;5014310;28;20208;-45
2024/01/05 12:55:42;;;;;;;57.13;52.28;;;;;;;;;;5003146;28;20408;-45
2024/01/05 12:58:08;;;;;;;53.23;48.83;;;;;;;;;;5002713;28;20670;-45
2024/01/05 13:00:41;;;;;;;51.23;47.43;;;;;;;;;;5011002;28;20760;-45
2024/01/05 13:03:12;;;;;;;49.53;45.70;;;;;;;;;;4995444;28;20489;-45
2024/01/05 13:05:38;;;;;;;51.25;47.30;;;;;;;;;;5014424;28;20643;-45
2024/01/05 13:08:04;;;;;;;53.47;49.17;;;;;;;;;;4997813;28;20185;-46
2024/01/05 13:10:30;;;;;;;49.95;45.75;;;;;;;;;;5007511;28;20419;-45
2024/01/05 13:12:56;;;;;;;50.47;46.10;;;;;;;;;;5005768;28;20699;-45
2024/01/05 13:15:22;;;;;;;47.67;44.07;;;;;;;;;;4999294;28;20828;-45
2024/01/05 13:17:49;;;;;;;48.70;44.67;;;;;;;;;;5013911;28;20987;-45
2024/01/05 13:20:24;;;;;;;46.30;42.50;;;;;;;;;;4994760;28;20607;-44
2024/01/05 13:22:58;;;;;;;44.75;40.95;;;;;;;;;;5012337;28;20550;-45
2024/01/05 13:25:24;;;;;;;46.75;42.45;;;;;;;;;;4999730;28;20175;-44
2024/01/05 13:27:50;;;;;;;46.08;41.95;;;;;;;;;;5005136;28;20249;-45
2024/01/05 13:30:17;;;;;;;49.30;45.30;;;;;;;;;;5007492;28;20607;-45
2024/01/05 13:32:43;;;;;;;51.58;47.20;;;;;;;;;;4997065;28;20213;-45
2024/01/05 13:35:10;;;;;;;50.50;46.50;;;;;;;;;;5014180;28;20208;-44
2024/01/05 13:37:36;;;;;;;52.22;47.72;;;;;;;;;;4995635;28;20175;-45
2024/01/05 13:40:03;;;;;;;50.25;46.38;;;;;;;;;;5008445;28;20658;-46
2024/01/05 13:42:29;;;;;;;48.90;45.10;;;;;;;;;;5003447;28;20209;-45
2024/01/05 13:44:56;;;;;;;47.90;44.10;;;;;;;;;;5000613;28;20180;-44
2024/01/05 13:47:22;;;;;;;68.20;62.42;;;;;;;;;;5010251;28;20844;-44
2024/01/05 13:49:48;;;;;;;51.15;47.15;;;;;;;;;;5002157;28;20246;-45
2024/01/05 13:52:14;;;;;;;44.47;40.33;;;;;;;;;;5013002;28;20189;-45
2024/01/05 13:54:39;;;;;;;45.80;41.60;;;;;;;;;;5013094;28;20492;-44
2024/01/05 13:57:05;;;;;;;46.97;42.47;;;;;;;;;;5013006;28;20447;-44
2024/01/05 13:59:33;;;;;;;48.63;44.00;;;;;;;;;;5007779;28;20482;-44
2024/01/05 14:01:59;;;;;;;45.92;41.55;;;;;;;;;;4996256;28;20401;-44
2024/01/05 14:04:25;;;;;;;47.33;42.90;;;;;;;;;;5013724;28;20701;-44
2024/01/05 14:06:51;;;;;;;48.27;43.67;;;;;;;;;;4995828;28;20922;-45
2024/01/05 14:09:17;;;;;;;33.88;30.70;;;;;;;;;;5007468;28;20870;-44
2024/01/05 14:11:43;;;;;;;31.07;28.27;;;;;;;;;;5003719;28;20184;-46
2024/01/05 14:14:09;;;;;;;22.38;20.48;;;;;;;;;;4999168;28;20972;-45
2024/01/05 14:16:35;;;;;;;22.27;20.65;;;;;;;;;;5011766;28;20205;-45